M/y Arion — 9HB2161 — position and weather

sailwx.info

Track history (hours):
 
Tides and Currents Weather Stations Pressure Air Temp Water Temp Dewpoint Dewpoint Depression Visibility Wind Speed Wind Dir Waves Ship Positions

M/y Arion

Last reported at 2016-Apr-07 17:20 UTC. Time now 2016-May-01 21:17 UTC.
Position N 43°51' E 010°14'.
Warning: this ship's position is 24 days out of date.

Length 37 m; draft 2.2 m.

Type: Other ship. MMSI: 215479000.

Date/timePositionNaut miles runAvg speedWind from/ knotsBaromVisibWave heightAir tempDewpointWater temp
2016-Apr-07 17:20N 43°51' E 010°14'0 0.0
2016-Apr-07 16:33N 43°51' E 010°14'0 0.0
2016-Apr-07 15:33N 43°51' E 010°14'0 0.0
2016-Apr-07 14:33N 43°51' E 010°14'2 1.9
2016-Apr-07 13:33N 43°52' E 010°12'1817.7
2016-Apr-07 12:33N 43°50' E 009°48'1818.2
2016-Apr-07 11:33N 43°48' E 009°22'1413.7
2016-Apr-07 10:33N 43°46' E 009°04'2718.4
2016-Apr-07 09:06N 43°42' E 008°27'4618.2
2016-Apr-07 06:33N 43°33' E 007°24'  
Track history (hours):
 
Tides and Currents Weather Stations Pressure Air Temp Water Temp Dewpoint Dewpoint Depression Visibility Wind Speed Wind Dir Waves Ship Positions

M/y Arion

Last reported at 2016-Apr-07 17:20 UTC. Time now 2016-May-01 21:17 UTC.
Position N 43°51' E 010°14'.
Warning: this ship's position is 24 days out of date.

Length 37 m; draft 2.2 m.

Type: Other ship. MMSI: 215479000.

Date/timePositionNaut miles runAvg speedWind from/ knotsBaromVisibWave heightAir tempDewpointWater temp
2016-Apr-07 17:20N 43°51' E 010°14'0 0.0
2016-Apr-07 16:33N 43°51' E 010°14'0 0.0
2016-Apr-07 15:33N 43°51' E 010°14'0 0.0
2016-Apr-07 14:33N 43°51' E 010°14'2 1.9
2016-Apr-07 13:33N 43°52' E 010°12'1817.7
2016-Apr-07 12:33N 43°50' E 009°48'1818.2
2016-Apr-07 11:33N 43°48' E 009°22'1413.7
2016-Apr-07 10:33N 43°46' E 009°04'2718.4
2016-Apr-07 09:06N 43°42' E 008°27'4618.2
2016-Apr-07 06:33N 43°33' E 007°24'  

Dump ship's entire track history